Time;durP1;ratioP1;P1;durP2;ratioP2;P2;SDS_P1;SDS_P2;PMS_P1;PMS_P2;Temp;Humidity;BMP_temperature;BMP_pressure;BME280_temperature;BME280_humidity;BME280_pressure;Samples;Min_cycle;Max_cycle;Signal;HPM_P1;HPM_P2
2022/06/01 00:00:37;;;;;;;9.02;4.70;;;;;;;14.89;75.45;99115.41;4303767;33;35769;-71
2022/06/01 00:03:05;;;;;;;7.62;4.35;;;;;;;14.92;73.84;99115.31;4304125;33;34377;-71
2022/06/01 00:05:33;;;;;;;7.70;4.65;;;;;;;14.77;74.05;99106.19;4304145;33;33562;-71
2022/06/01 00:08:01;;;;;;;7.10;4.37;;;;;;;14.46;74.76;99114.09;4303805;33;34840;-71
2022/06/01 00:10:29;;;;;;;8.85;5.25;;;;;;;14.20;75.20;99100.00;4303373;33;36044;-71
2022/06/01 00:12:57;;;;;;;10.65;5.45;;;;;;;14.52;74.69;99108.66;4304024;33;34431;-71
2022/06/01 00:15:26;;;;;;;7.87;5.15;;;;;;;14.69;74.50;99110.78;4304475;33;34323;-72
2022/06/01 00:17:57;;;;;;;8.75;5.12;;;;;;;14.81;73.82;99108.69;4301374;33;33908;-71
2022/06/01 00:20:26;;;;;;;9.02;4.87;;;;;;;14.81;74.19;99103.44;4304479;33;34292;-71
2022/06/01 00:22:54;;;;;;;9.85;5.22;;;;;;;14.71;74.49;99100.28;4303863;33;34393;-71
2022/06/01 00:25:22;;;;;;;10.40;5.55;;;;;;;14.56;74.62;99099.81;4304299;33;33292;-70
2022/06/01 00:27:50;;;;;;;8.57;5.28;;;;;;;13.79;78.42;99098.59;4302703;33;33556;-71
2022/06/01 00:30:20;;;;;;;7.12;4.68;;;;;;;14.30;75.65;99099.75;4314240;33;35900;-70
2022/06/01 00:32:48;;;;;;;11.40;5.32;;;;;;;14.41;75.24;99102.91;4314023;33;34500;-70
2022/06/01 00:35:18;;;;;;;9.10;4.82;;;;;;;14.20;75.89;99099.16;4303260;33;33480;-70
2022/06/01 00:37:46;;;;;;;10.02;5.40;;;;;;;14.13;75.23;99103.69;4302635;33;35471;-71
2022/06/01 00:40:15;;;;;;;8.27;6.12;;;;;;;13.81;76.93;99097.62;4304265;33;35170;-71
2022/06/01 00:42:45;;;;;;;7.95;4.82;;;;;;;14.38;74.54;99098.62;4303370;33;34752;-71
2022/06/01 00:45:16;;;;;;;7.95;5.30;;;;;;;14.22;75.07;99086.87;4315086;33;34166;-70
2022/06/01 00:47:44;;;;;;;10.52;6.25;;;;;;;14.55;73.37;99084.13;4303648;33;34059;-71
2022/06/01 00:50:28;;;;;;;10.30;6.20;;;;;;;14.30;76.38;99090.12;4302308;33;35169;-71
2022/06/01 00:53:09;;;;;;;12.70;5.37;;;;;;;14.58;74.76;99082.31;4302498;33;34540;-71
2022/06/01 00:55:40;;;;;;;11.45;5.93;;;;;;;14.62;72.91;99076.97;4304067;33;33455;-71
2022/06/01 00:58:22;;;;;;;8.75;5.60;;;;;;;14.37;74.08;99077.72;4301963;33;34737;-71
2022/06/01 01:00:51;;;;;;;10.00;6.05;;;;;;;13.40;78.61;99086.53;4302894;33;33597;-71
2022/06/01 01:03:19;;;;;;;9.52;5.45;;;;;;;13.67;76.49;99081.44;4303379;33;35197;-71
2022/06/01 01:05:56;;;;;;;11.48;5.95;;;;;;;13.90;75.26;99090.44;4303458;33;33413;-70
2022/06/01 01:08:24;;;;;;;;;;;;;;;14.18;74.92;99083.47;4303609;33;34077;-80
2022/06/01 01:10:51;;;;;;;13.68;6.68;;;;;;;14.50;73.37;99083.41;4303090;33;35221;-71
2022/06/01 01:13:19;;;;;;;9.30;5.78;;;;;;;13.76;77.79;99083.81;4315739;33;34903;-72
2022/06/01 01:15:55;;;;;;;9.02;5.95;;;;;;;14.22;75.65;99094.72;4305733;33;33221;-71
2022/06/01 01:18:27;;;;;;;11.90;5.85;;;;;;;14.31;74.79;99097.09;4315369;33;34081;-80
2022/06/01 01:21:18;;;;;;;10.02;6.05;;;;;;;14.36;73.78;99099.56;4304364;33;36096;-79
2022/06/01 01:23:59;;;;;;;10.50;6.28;;;;;;;13.71;77.07;99092.69;4303046;33;34442;-71
2022/06/01 01:26:28;;;;;;;9.90;6.00;;;;;;;14.21;74.76;99093.03;4305293;33;33480;-71
2022/06/01 01:28:56;;;;;;;10.88;6.12;;;;;;;13.84;76.53;99092.31;4305144;33;33911;-70
2022/06/01 01:31:25;;;;;;;9.23;5.65;;;;;;;14.18;75.60;99085.25;4304522;33;35425;-71
2022/06/01 01:33:56;;;;;;;11.95;6.70;;;;;;;14.09;74.24;99090.75;4305087;33;34389;-71
2022/06/01 01:36:30;;;;;;;11.45;6.70;;;;;;;12.98;78.65;99081.47;4305591;33;33565;-71
2022/06/01 01:39:07;;;;;;;13.77;7.80;;;;;;;13.88;77.23;99084.38;4315215;33;33979;-71
2022/06/01 01:41:39;;;;;;;14.00;7.75;;;;;;;13.92;78.30;99088.63;4304094;33;34991;-70
2022/06/01 01:44:16;;;;;;;11.18;6.47;;;;;;;14.06;77.46;99081.22;4315572;33;34089;-71
2022/06/01 01:46:47;;;;;;;10.65;6.30;;;;;;;14.09;76.76;99081.13;4304514;33;34053;-71
2022/06/01 01:49:17;;;;;;;12.35;6.55;;;;;;;13.84;77.55;99083.62;4304833;33;34188;-71
2022/06/01 01:51:45;;;;;;;9.60;5.90;;;;;;;14.27;75.59;99082.34;4316379;33;34786;-71
2022/06/01 01:54:35;;;;;;;11.52;6.85;;;;;;;13.83;77.15;99071.41;4304955;33;35072;-71
2022/06/01 01:57:28;;;;;;;10.95;6.12;;;;;;;14.25;76.54;99080.69;4291103;33;33548;-79
2022/06/01 02:00:15;;;;;;;8.18;5.45;;;;;;;14.47;76.58;99071.28;4289952;33;34693;-71
2022/06/01 02:02:57;;;;;;;12.75;7.47;;;;;;;14.46;76.29;99066.94;4295669;33;35072;-71
2022/06/01 02:08:29;;;;;;;12.82;7.45;;;;;;;14.51;77.58;99066.81;4303512;33;33623;-71
2022/06/01 02:14:50;;;;;;;13.05;7.35;;;;;;;14.51;79.89;99064.19;4304961;33;35036;-71
2022/06/01 02:17:26;;;;;;;11.38;6.75;;;;;;;14.96;77.48;99061.00;4303772;33;34952;-71
2022/06/01 02:19:58;;;;;;;13.45;7.90;;;;;;;14.86;76.32;99057.84;4292436;33;33612;-71
2022/06/01 02:22:26;;;;;;;13.30;7.60;;;;;;;14.82;77.59;99061.44;4303443;33;33928;-71
2022/06/01 02:24:54;;;;;;;11.90;6.25;;;;;;;15.01;76.49;99061.72;4303540;33;34460;-73
2022/06/01 02:27:22;;;;;;;15.15;8.40;;;;;;;14.93;76.30;99058.47;4292557;33;34242;-70
2022/06/01 02:29:55;;;;;;;14.65;7.45;;;;;;;14.72;78.93;99065.31;4304212;33;33496;-71
2022/06/01 02:32:25;;;;;;;13.15;6.90;;;;;;;14.52;79.44;99069.34;4303087;33;34015;-79
2022/06/01 02:34:54;;;;;;;10.73;6.43;;;;;;;14.95;77.36;99072.41;4315949;33;34175;-71
2022/06/01 02:37:23;;;;;;;11.63;6.80;;;;;;;14.31;79.95;99065.66;4303815;33;35173;-79
2022/06/01 02:39:53;;;;;;;13.52;7.30;;;;;;;14.50;79.40;99065.94;4304168;33;34132;-71
2022/06/01 02:42:28;;;;;;;14.13;7.45;;;;;;;14.37;80.74;99069.84;4303088;33;34844;-71
2022/06/01 02:45:09;;;;;;;15.13;7.85;;;;;;;14.48;80.87;99065.13;4314669;33;35791;-71
2022/06/01 02:47:40;;;;;;;10.82;6.60;;;;;;;14.84;80.72;99062.28;4303354;33;34423;-71
2022/06/01 02:50:15;;;;;;;13.38;7.65;;;;;;;14.33;83.06;99063.84;4304035;33;33527;-71
2022/06/01 02:52:44;;;;;;;12.70;7.35;;;;;;;14.71;81.27;99069.66;4304707;33;33992;-71
2022/06/01 02:55:14;;;;;;;10.32;6.25;;;;;;;14.74;81.00;99073.97;4301877;33;35131;-70
2022/06/01 02:57:45;;;;;;;13.62;7.53;;;;;;;14.65;80.79;99063.75;4303604;33;34445;-70
2022/06/01 03:00:28;;;;;;;16.52;7.80;;;;;;;14.74;81.44;99072.19;4315116;33;34134;-70
2022/06/01 03:02:58;;;;;;;15.05;8.00;;;;;;;14.93;81.75;99068.97;4291265;33;34068;-70
2022/06/01 03:05:35;;;;;;;13.77;7.93;;;;;;;15.07;81.28;99065.88;4303895;33;33180;-70
2022/06/01 03:08:08;;;;;;;13.32;7.80;;;;;;;14.46;83.72;99066.94;4304269;33;34396;-71
2022/06/01 03:10:37;;;;;;;13.10;8.30;;;;;;;14.00;86.93;99065.72;4315729;33;33442;-74
2022/06/01 03:13:23;;;;;;;14.77;8.63;;;;;;;14.31;85.55;99059.53;4302956;33;33851;-70
2022/06/01 03:15:52;;;;;;;17.55;8.73;;;;;;;14.50;84.70;99049.34;4304714;33;35957;-77
2022/06/01 03:18:20;;;;;;;17.73;9.77;;;;;;;14.92;83.20;99047.13;4302926;33;34367;-70
2022/06/01 03:20:48;;;;;;;18.70;10.43;;;;;;;15.17;83.25;99057.66;4291770;33;34299;-70
2022/06/01 03:23:19;;;;;;;15.25;9.10;;;;;;;15.55;83.11;99049.38;4301979;33;34604;-70
2022/06/01 03:25:47;;;;;;;22.40;12.10;;;;;;;15.89;82.71;99042.94;4303466;33;34331;-71
2022/06/01 03:28:15;;;;;;;25.95;13.70;;;;;;;15.92;83.16;99055.94;4303891;33;34642;-70
2022/06/01 03:30:44;;;;;;;29.90;14.05;;;;;;;16.01;85.43;99058.22;4304208;33;33480;-70
2022/06/01 03:33:15;;;;;;;28.10;14.02;;;;;;;16.09;86.87;99078.94;4302597;33;34053;-70
2022/06/01 03:35:43;;;;;;;36.80;16.10;;;;;;;15.91;88.84;99098.84;4314279;33;35169;-77
2022/06/01 03:38:12;;;;;;;31.42;14.35;;;;;;;16.10;90.67;99126.16;4305155;33;34229;-70
2022/06/01 03:40:40;;;;;;;33.65;16.27;;;;;;;16.23;89.34;99133.59;4315373;33;33534;-69
2022/06/01 03:43:10;;;;;;;36.67;17.15;;;;;;;16.43;88.81;99138.97;4302706;33;33926;-70
2022/06/01 03:45:58;;;;;;;43.20;20.33;;;;;;;16.33;90.64;99140.22;4303021;33;35048;-70
2022/06/01 03:48:30;;;;;;;38.65;19.62;;;;;;;16.52;89.86;99140.37;4303817;33;34508;-71
2022/06/01 03:50:59;;;;;;;40.78;19.62;;;;;;;17.08;87.56;99139.06;4303584;33;34386;-70
2022/06/01 03:53:29;;;;;;;46.78;20.08;;;;;;;17.34;85.19;99134.53;4288310;33;34120;-71
2022/06/01 03:55:57;;;;;;;38.60;19.73;;;;;;;17.41;84.54;99135.97;4300414;33;35070;-70
2022/06/01 03:58:25;;;;;;;38.67;18.25;;;;;;;17.17;85.92;99130.81;4294964;33;34391;-71
2022/06/01 04:00:53;;;;;;;35.15;18.42;;;;;;;17.78;81.89;99123.87;4315032;33;32851;-79
2022/06/01 04:03:21;;;;;;;37.83;17.10;;;;;;;17.10;84.45;99116.22;4304015;33;34599;-71
2022/06/01 04:05:49;;;;;;;39.50;17.23;;;;;;;17.25;84.24;99110.28;4303272;33;35899;-70
2022/06/01 04:08:18;;;;;;;34.17;16.90;;;;;;;17.45;83.17;99113.84;4303811;33;33998;-78
2022/06/01 04:10:46;;;;;;;32.60;17.50;;;;;;;17.14;84.86;99107.28;4303787;33;33594;-77
2022/06/01 04:13:14;;;;;;;34.05;17.33;;;;;;;17.25;84.26;99126.09;4302804;33;34046;-75
2022/06/01 04:15:42;;;;;;;32.83;17.87;;;;;;;16.87;86.61;99128.53;4303161;33;35975;-74
2022/06/01 04:18:11;;;;;;;32.70;17.30;;;;;;;16.98;86.39;99119.34;4313049;33;34309;-79
2022/06/01 04:20:38;;;;;;;31.62;16.62;;;;;;;17.01;86.92;99127.09;4315091;33;33488;-75
2022/06/01 04:23:06;;;;;;;31.48;16.77;;;;;;;17.03;86.57;99130.53;4302522;33;33923;-81
2022/06/01 04:25:34;;;;;;;33.72;16.95;;;;;;;17.20;85.68;99128.03;4303910;33;35039;-71
2022/06/01 04:28:02;;;;;;;32.83;17.85;;;;;;;17.32;86.04;99139.84;4303732;33;34415;-82
2022/06/01 04:30:30;;;;;;;29.23;15.98;;;;;;;17.15;87.25;99137.91;4290445;33;32601;-72
2022/06/01 04:32:59;;;;;;;34.25;17.27;;;;;;;17.98;83.81;99131.78;4301697;33;34046;-72
2022/06/01 04:35:26;;;;;;;30.23;17.30;;;;;;;17.83;84.52;99132.44;4302520;33;35027;-69
2022/06/01 04:38:12;;;;;;;31.23;18.23;;;;;;;17.69;85.04;99140.06;4314317;33;34388;-70
2022/06/01 04:40:46;;;;;;;34.17;16.37;;;;;;;17.92;83.45;99147.00;4304105;33;33550;-70
2022/06/01 04:43:16;;;;;;;37.25;18.87;;;;;;;17.91;83.17;99142.66;4303382;33;33965;-71
2022/06/01 04:45:56;;;;;;;29.58;16.15;;;;;;;18.17;82.65;99138.84;4302744;33;34965;-84
2022/06/01 04:48:24;;;;;;;39.38;17.27;;;;;;;18.17;82.48;99131.78;4304384;33;34209;-82
2022/06/01 04:50:53;;;;;;;28.95;16.67;;;;;;;18.32;82.80;99134.69;4304504;33;33506;-81
2022/06/01 04:53:21;;;;;;;36.70;17.60;;;;;;;18.46;82.55;99131.38;4314043;33;33865;-79
2022/06/01 04:55:49;;;;;;;31.33;17.05;;;;;;;18.36;83.14;99131.81;4293445;33;35034;-83
2022/06/01 04:58:17;;;;;;;32.97;17.10;;;;;;;18.75;81.65;99141.44;4305646;33;35218;-83
2022/06/01 05:00:46;;;;;;;27.58;15.70;;;;;;;19.67;76.62;99145.78;4304484;33;31993;-83
2022/06/01 05:03:14;;;;;;;27.25;15.15;;;;;;;18.91;80.00;99135.47;4305798;33;33637;-82
2022/06/01 05:05:42;;;;;;;24.40;13.40;;;;;;;19.38;77.36;99131.41;4305707;33;35773;-70
2022/06/01 05:08:11;;;;;;;25.58;13.77;;;;;;;19.80;73.52;99132.81;4304278;33;35059;-71
2022/06/01 05:10:39;;;;;;;25.75;13.62;;;;;;;19.48;77.29;99133.50;4304718;33;33510;-69
2022/06/01 05:13:09;;;;;;;26.00;14.73;;;;;;;19.12;77.41;99137.03;4304061;33;34191;-69
2022/06/01 05:15:48;;;;;;;23.95;13.10;;;;;;;19.39;76.65;99138.41;4316466;33;35857;-71
2022/06/01 05:18:17;;;;;;;20.45;12.25;;;;;;;19.73;75.97;99153.41;4316043;33;34340;-68
2022/06/01 05:20:45;;;;;;;24.60;12.93;;;;;;;19.33;77.33;99147.47;4305651;33;33385;-69
2022/06/01 05:23:13;;;;;;;19.25;11.45;;;;;;;19.78;74.64;99158.44;4304244;33;33963;-71
2022/06/01 05:25:43;;;;;;;14.48;9.27;;;;;;;20.04;74.14;99157.09;4305356;33;35121;-69
2022/06/01 05:28:12;;;;;;;15.85;9.85;;;;;;;19.92;74.49;99170.97;4304226;33;35249;-70
2022/06/01 05:30:39;;;;;;;16.35;9.88;;;;;;;19.73;75.77;99174.53;4316404;33;33380;-69
2022/06/01 05:33:08;;;;;;;12.85;7.72;;;;;;;19.54;74.04;99174.59;4314054;33;34629;-72
2022/06/01 05:35:35;;;;;;;11.88;7.72;;;;;;;19.86;73.25;99175.63;4305412;33;35079;-69
2022/06/01 05:38:03;;;;;;;12.25;7.07;;;;;;;19.75;73.25;99183.25;4304483;33;34603;-80
2022/06/01 05:40:32;;;;;;;10.55;7.20;;;;;;;19.06;75.72;99187.50;4304256;33;32665;-78
2022/06/01 05:43:00;;;;;;;11.73;7.57;;;;;;;19.09;75.69;99194.41;4303918;33;33612;-75
2022/06/01 05:45:29;;;;;;;11.30;6.57;;;;;;;18.79;77.96;99180.84;4277760;33;35891;-78
2022/06/01 05:47:58;;;;;;;12.65;7.35;;;;;;;19.54;74.03;99192.25;4303342;33;33702;-73
2022/06/01 05:50:25;;;;;;;10.32;6.47;;;;;;;19.35;75.76;99194.94;4305767;33;33489;-75
2022/06/01 05:52:53;;;;;;;13.05;7.22;;;;;;;19.27;74.91;99195.28;4315689;33;33832;-70
2022/06/01 05:55:21;;;;;;;12.43;6.50;;;;;;;19.50;74.50;99202.06;4304974;33;34719;-69
2022/06/01 05:57:49;;;;;;;10.93;6.60;;;;;;;19.48;73.94;99202.19;4315548;33;35264;-69
2022/06/01 06:00:17;;;;;;;13.27;8.13;;;;;;;19.03;76.42;99202.63;4304980;33;34416;-69
2022/06/01 06:02:46;;;;;;;15.20;7.75;;;;;;;18.84;77.44;99202.63;4304703;33;33870;-81
2022/06/01 06:08:00;;;;;;;11.75;7.68;;;;;;;18.70;77.65;99198.81;4304074;33;35105;-69
2022/06/01 06:10:28;;;;;;;11.55;7.10;;;;;;;19.46;74.27;99203.16;4315186;33;33478;-70
2022/06/01 06:12:57;;;;;;;13.73;6.62;;;;;;;19.57;74.37;99197.34;4302001;33;33902;-69
2022/06/01 06:15:25;;;;;;;12.23;7.55;;;;;;;18.80;76.47;99208.97;4304761;33;34924;-70
2022/06/01 06:17:53;;;;;;;9.38;6.43;;;;;;;19.36;74.43;99209.81;4303526;33;33798;-70
2022/06/01 06:20:21;;;;;;;9.82;7.12;;;;;;;18.70;76.93;99204.09;4303684;33;34288;-69
2022/06/01 06:22:49;;;;;;;18.92;8.88;;;;;;;18.48;77.29;99208.66;4304865;33;33998;-69
2022/06/01 06:25:17;;;;;;;11.93;7.97;;;;;;;18.69;77.65;99212.94;4315260;33;35869;-69
2022/06/01 06:27:45;;;;;;;12.37;7.15;;;;;;;18.19;80.66;99210.78;4303956;33;34108;-69
2022/06/01 06:30:15;;;;;;;12.18;7.95;;;;;;;18.57;78.56;99209.06;4315318;33;34235;-70
2022/06/01 06:32:42;;;;;;;12.02;8.70;;;;;;;19.14;75.53;99216.16;4304409;33;34748;-81
2022/06/01 06:35:11;;;;;;;11.57;7.10;;;;;;;19.23;76.17;99217.50;4304218;33;35109;-69
2022/06/01 06:37:39;;;;;;;10.90;7.50;;;;;;;19.41;74.81;99226.31;4292411;33;33758;-69
2022/06/01 06:40:08;;;;;;;11.82;7.43;;;;;;;19.12;76.42;99226.78;4304726;33;33437;-70
2022/06/01 06:42:36;;;;;;;12.88;7.62;;;;;;;19.36;74.91;99229.19;4315366;33;34735;-70
2022/06/01 06:45:05;;;;;;;12.15;7.60;;;;;;;19.46;74.74;99233.06;4303239;33;33592;-70
2022/06/01 06:47:33;;;;;;;9.73;7.12;;;;;;;19.20;74.95;99233.47;4315980;33;35265;-69
2022/06/01 06:50:06;;;;;;;11.85;7.47;;;;;;;19.41;75.40;99240.38;4314352;33;33422;-69
2022/06/01 06:52:34;;;;;;;15.45;7.80;;;;;;;19.37;75.16;99238.81;4304070;33;34871;-69
2022/06/01 06:55:02;;;;;;;10.75;7.62;;;;;;;19.54;74.97;99242.44;4303115;33;34331;-69
2022/06/01 06:57:30;;;;;;;9.32;6.50;;;;;;;20.05;73.56;99236.31;4315079;33;34299;-70
2022/06/01 06:59:58;;;;;;;11.60;7.75;;;;;;;20.22;73.29;99237.22;4304600;33;33533;-69
2022/06/01 07:02:26;;;;;;;13.98;7.22;;;;;;;20.05;75.60;99238.13;4304250;33;34035;-69
2022/06/01 07:04:53;;;;;;;10.40;6.43;;;;;;;20.56;70.96;99244.25;4304266;33;35033;-69
2022/06/01 07:07:23;;;;;;;10.40;6.37;;;;;;;20.61;69.90;99252.84;4305021;33;34395;-79
2022/06/01 07:09:50;;;;;;;167.62;15.63;;;;;;;20.33;73.10;99253.41;4303496;33;33525;-69
2022/06/01 07:12:19;;;;;;;16.60;6.30;;;;;;;20.59;73.83;99249.34;4303154;33;33832;-69
2022/06/01 07:14:47;;;;;;;8.40;5.00;;;;;;;21.53;67.94;99253.97;4303865;33;35016;-68
2022/06/01 07:17:15;;;;;;;7.00;4.90;;;;;;;21.05;68.60;99255.78;4305090;33;34731;-69
2022/06/01 07:19:43;;;;;;;7.57;4.93;;;;;;;21.05;68.37;99261.06;4303873;33;33566;-69
2022/06/01 07:22:11;;;;;;;7.15;5.07;;;;;;;20.98;68.70;99260.56;4305040;33;34574;-69
2022/06/01 07:24:39;;;;;;;8.35;5.40;;;;;;;21.56;66.82;99264.41;4304619;33;36014;-68
2022/06/01 07:27:07;;;;;;;8.63;4.85;;;;;;;21.69;67.92;99262.78;4305062;33;34443;-69
2022/06/01 07:29:35;;;;;;;7.18;5.20;;;;;;;22.55;65.32;99261.25;4304460;33;33431;-70
2022/06/01 07:32:03;;;;;;;6.82;4.78;;;;;;;22.51;64.07;99260.59;4304958;33;34613;-70
2022/06/01 07:34:30;;;;;;;7.45;4.43;;;;;;;22.94;62.88;99262.37;4304050;33;35165;-69
2022/06/01 07:43:05;;;;;;;9.25;4.25;;;;;;;23.62;58.87;99264.22;4304309;33;34419;-71
2022/06/01 07:45:20;;;;;;;8.13;3.95;;;;;;;22.62;60.72;99267.91;4303200;33;35901;-70
2022/06/01 07:47:48;;;;;;;8.32;4.55;;;;;;;21.88;63.73;99269.63;4304628;33;34574;-70
2022/06/01 07:50:36;;;;;;;7.72;4.70;;;;;;;21.98;62.70;99268.16;4303080;33;32813;-69
2022/06/01 07:53:14;;;;;;;5.90;4.53;;;;;;;22.37;62.81;99263.25;4303242;33;33960;-71
2022/06/01 07:55:41;;;;;;;4.93;3.60;;;;;;;23.02;62.04;99276.03;4314789;33;34981;-70
2022/06/01 07:58:09;;;;;;;6.43;3.95;;;;;;;23.36;60.09;99281.88;4304460;33;34475;-71
2022/06/01 08:00:38;;;;;;;7.22;3.80;;;;;;;22.08;63.30;99279.09;4304025;33;34290;-69
2022/06/01 08:03:16;;;;;;;5.00;3.40;;;;;;;23.17;59.98;99285.72;4302633;33;34060;-70
2022/06/01 08:05:44;;;;;;;8.02;3.83;;;;;;;23.19;59.00;99281.16;4302840;33;35072;-69
2022/06/01 08:08:12;;;;;;;6.85;3.75;;;;;;;23.30;59.05;99282.28;4303450;33;34418;-69
2022/06/01 08:10:41;;;;;;;6.95;3.80;;;;;;;23.75;58.31;99285.53;4314433;33;33468;-69
2022/06/01 08:13:10;;;;;;;9.70;3.90;;;;;;;24.25;55.97;99288.44;4304235;33;34649;-69
2022/06/01 08:15:45;;;;;;;5.87;3.53;;;;;;;24.51;56.36;99290.19;4303930;33;34126;-69
2022/06/01 08:18:24;;;;;;;5.32;3.72;;;;;;;24.78;56.77;99282.09;4301634;33;35251;-70
2022/06/01 08:20:53;;;;;;;5.00;3.37;;;;;;;24.83;53.42;99286.22;4312580;33;34290;-69
2022/06/01 08:23:24;;;;;;;16.95;3.37;;;;;;;25.16;56.35;99286.47;4301653;33;33970;-69
2022/06/01 08:25:52;;;;;;;5.68;3.55;;;;;;;25.58;54.18;99288.84;4314448;33;35571;-70
2022/06/01 08:28:20;;;;;;;5.05;3.20;;;;;;;25.08;56.02;99294.19;4296239;33;273607;-69
2022/06/01 08:30:49;;;;;;;5.28;3.17;;;;;;;25.54;52.12;99292.69;4303650;33;34271;-70
2022/06/01 08:33:18;;;;;;;5.53;3.35;;;;;;;25.17;50.78;99296.19;4302700;33;34870;-69
2022/06/01 08:35:48;;;;;;;5.10;3.40;;;;;;;25.35;52.15;99304.69;4300580;33;34876;-70
2022/06/01 08:38:15;;;;;;;4.93;3.15;;;;;;;25.68;53.88;99305.03;4302890;33;33655;-69
2022/06/01 08:40:44;;;;;;;6.93;3.40;;;;;;;25.79;50.72;99301.56;4303730;33;34194;-70
2022/06/01 08:43:13;;;;;;;7.72;4.28;;;;;;;26.11;50.78;99296.47;4304263;33;33917;-70
2022/06/01 08:45:44;;;;;;;5.90;3.53;;;;;;;26.36;49.81;99300.78;4290481;33;34300;-70
2022/06/01 08:48:19;;;;;;;5.25;3.53;;;;;;;25.06;51.73;99304.12;4314919;33;35317;-70
2022/06/01 08:50:48;;;;;;;2.95;2.00;;;;;;;26.17;51.77;99303.16;4302884;33;33405;-70
2022/06/01 08:53:17;;;;;;;3.85;2.12;;;;;;;26.02;50.46;99305.19;4304027;33;35236;-70
2022/06/01 08:55:58;;;;;;;3.97;2.47;;;;;;;26.19;47.50;99310.09;4312152;33;35760;-70
2022/06/01 08:58:47;;;;;;;9.10;3.83;;;;;;;26.74;46.92;99304.16;4293188;33;35070;-70
2022/06/01 09:01:37;;;;;;;5.62;3.00;;;;;;;26.73;47.09;99310.47;4304085;33;34250;-70
2022/06/01 09:04:24;;;;;;;7.20;2.47;;;;;;;26.25;48.59;99312.28;4303917;33;33967;-70
2022/06/01 09:07:17;;;;;;;4.55;3.03;;;;;;;27.16;46.45;99307.91;4303120;33;35123;-70
2022/06/01 09:10:00;;;;;;;4.70;2.72;;;;;;;27.32;46.51;99315.59;4302898;33;35115;-70
2022/06/01 09:12:28;;;;;;;5.03;2.67;;;;;;;27.28;47.84;99311.44;4303954;33;33550;-70
2022/06/01 09:14:57;;;;;;;4.37;2.80;;;;;;;27.78;44.03;99308.28;4303156;33;33965;-70
2022/06/01 09:17:26;;;;;;;4.85;2.90;;;;;;;27.61;45.39;99315.03;4314496;33;35043;-71
2022/06/01 09:22:45;;;;;;;3.85;2.60;;;;;;;27.23;46.68;99324.28;4309028;33;33573;-76
2022/06/01 09:25:16;;;;;;;3.20;2.03;;;;;;;27.76;44.02;99315.56;4303394;33;34054;-77
2022/06/01 09:27:52;;;;;;;3.60;2.78;;;;;;;27.26;44.88;99308.00;4314386;33;34580;-75
2022/06/01 09:30:33;;;;;;;3.72;2.60;;;;;;;26.45;46.23;99318.78;4302521;33;35349;-70
2022/06/01 09:33:23;;;;;;;4.70;2.55;;;;;;;27.27;43.73;99320.44;4304851;33;33711;-78
2022/06/01 09:36:00;;;;;;;4.50;2.90;;;;;;;26.87;45.17;99318.25;4303687;33;33905;-80
2022/06/01 09:38:48;;;;;;;3.55;2.45;;;;;;;28.00;44.22;99320.75;4304707;33;35140;-79
2022/06/01 09:41:31;;;;;;;5.28;2.53;;;;;;;27.69;44.40;99320.59;4314566;33;34275;-77
2022/06/01 09:44:03;;;;;;;5.82;2.45;;;;;;;28.70;42.39;99323.81;4305512;33;33347;-70
2022/06/01 09:46:54;;;;;;;3.95;2.50;;;;;;;28.80;42.28;99330.06;4305423;33;34322;-69
2022/06/01 09:49:32;;;;;;;5.15;2.62;;;;;;;28.50;41.94;99326.34;4304606;33;34960;-70
2022/06/01 09:52:12;;;;;;;6.03;2.37;;;;;;;28.28;41.28;99321.94;4305412;33;34476;-73
2022/06/01 09:54:52;;;;;;;3.85;2.50;;;;;;;27.96;43.31;99327.34;4313546;33;33447;-75
2022/06/01 09:57:30;;;;;;;2.62;2.20;;;;;;;28.21;43.75;99326.12;4316084;33;34767;-79
2022/06/01 10:06:30;;;;;;;3.42;2.35;;;;;;;28.44;41.86;99326.84;4304780;33;33503;-69
2022/06/01 10:09:23;;;;;;;3.20;2.37;;;;;;;27.47;42.89;99324.16;4315026;33;34889;-81
2022/06/01 10:11:54;;;;;;;4.90;2.83;;;;;;;28.70;41.18;99329.16;4289769;33;35027;-78
2022/06/01 10:14:32;;;;;;;5.62;2.78;;;;;;;28.51;41.84;99333.38;4290096;33;34472;-75
2022/06/01 10:17:04;;;;;;;3.30;2.03;;;;;;;28.82;41.15;99322.72;4304586;33;33390;-69
2022/06/01 10:19:44;;;;;;;3.42;2.28;;;;;;;29.17;38.51;99324.16;4304215;33;34647;-77
2022/06/01 10:22:58;;;;;;;3.72;2.20;;;;;;;28.85;38.52;99329.66;4304398;33;35939;-70
2022/06/01 10:25:46;;;;;;;4.35;2.30;;;;;;;28.86;38.79;99328.69;4302974;33;35177;-71
2022/06/01 10:28:39;;;;;;;3.50;2.67;;;;;;;28.70;38.74;99327.31;4302410;33;33433;-69
2022/06/01 10:31:19;;;;;;;4.50;2.17;;;;;;;27.75;42.96;99330.78;4304484;33;33926;-69
2022/06/01 10:33:51;;;;;;;3.67;2.12;;;;;;;28.72;40.20;99328.03;4304304;33;34622;-70
2022/06/01 10:36:34;;;;;;;2.60;1.87;;;;;;;28.98;37.87;99337.44;4312398;33;34282;-69
2022/06/01 10:39:11;;;;;;;3.15;1.98;;;;;;;29.90;37.37;99339.19;4289576;33;34210;-69
2022/06/01 10:41:40;;;;;;;;;;;;;;;29.48;36.26;99335.69;4303849;33;33836;-69
2022/06/01 10:44:21;;;;;;;2.72;2.03;;;;;;;29.33;38.46;99323.63;4292144;33;35561;-77
2022/06/01 10:47:18;;;;;;;3.28;1.80;;;;;;;30.27;37.02;99333.94;4303134;33;34373;-73
2022/06/01 10:50:11;;;;;;;2.28;1.70;;;;;;;29.96;34.25;99327.88;4305205;33;33505;-71
2022/06/01 10:52:48;;;;;;;4.18;2.28;;;;;;;29.69;36.69;99340.94;4312807;33;34076;-70
2022/06/01 10:55:26;;;;;;;2.08;1.80;;;;;;;29.86;35.52;99342.12;4303510;33;35831;-70
2022/06/01 10:57:58;;;;;;;3.55;1.83;;;;;;;29.37;35.38;99329.59;4304393;33;35250;-70
2022/06/01 11:00:37;;;;;;;2.97;1.70;;;;;;;29.81;34.27;99339.03;4303446;33;33406;-70
2022/06/01 11:03:25;;;;;;;2.95;1.60;;;;;;;30.04;36.53;99334.22;4304083;33;33968;-71
2022/06/01 11:05:53;;;;;;;2.50;1.80;;;;;;;28.95;36.49;99329.69;4290801;33;34209;-70
2022/06/01 11:08:46;;;;;;;3.33;1.80;;;;;;;29.53;36.59;99334.44;4305104;33;34071;-70
2022/06/01 11:11:37;;;;;;;2.67;1.73;;;;;;;29.34;36.30;99336.06;4304745;33;33978;-70
2022/06/01 11:14:29;;;;;;;4.05;2.00;;;;;;;29.19;36.75;99338.31;4304552;33;34654;-70
2022/06/01 11:17:08;;;;;;;2.53;1.87;;;;;;;29.87;34.31;99330.41;4304551;33;35791;-71
2022/06/01 11:20:14;;;;;;;3.20;1.90;;;;;;;28.82;38.09;99329.91;4303861;33;34562;-70
2022/06/01 11:22:50;;;;;;;3.33;2.05;;;;;;;30.21;35.27;99337.19;4291347;33;33462;-70
2022/06/01 11:25:33;;;;;;;3.03;2.03;;;;;;;29.97;34.34;99335.78;4302914;33;33857;-71
2022/06/01 11:28:12;;;;;;;4.28;2.15;;;;;;;30.38;35.43;99325.75;4305027;33;35008;-70
2022/06/01 11:30:46;;;;;;;2.87;1.80;;;;;;;29.69;35.57;99327.53;4304034;33;34488;-70
2022/06/01 11:33:39;;;;;;;2.30;1.67;;;;;;;30.19;33.26;99328.41;4305029;33;34241;-77
2022/06/01 11:36:32;;;;;;;3.58;2.30;;;;;;;30.15;36.30;99318.97;4299859;33;34815;-71
2022/06/01 11:39:12;;;;;;;2.87;1.80;;;;;;;30.87;33.78;99319.41;4315210;33;35799;-70
2022/06/01 11:41:50;;;;;;;2.15;1.60;;;;;;;29.69;36.35;99319.47;4304408;33;34231;-70
2022/06/01 11:44:29;;;;;;;2.37;1.87;;;;;;;30.20;35.33;99316.69;4303892;33;33378;-71
2022/06/01 11:47:18;;;;;;;2.62;2.00;;;;;;;29.29;37.34;99312.34;4303301;33;33944;-71
2022/06/01 11:50:19;;;;;;;1.92;1.58;;;;;;;29.59;36.20;99313.25;4315089;33;35978;-71
2022/06/01 11:52:56;;;;;;;2.53;1.80;;;;;;;30.42;33.09;99315.56;4301096;33;34458;-71
2022/06/01 11:55:36;;;;;;;3.45;1.50;;;;;;;30.11;35.07;99312.16;4291911;33;33389;-70
2022/06/01 11:58:38;;;;;;;4.40;1.70;;;;;;;29.68;34.77;99315.13;4304760;33;33915;-70
2022/06/01 12:01:16;;;;;;;2.72;1.95;;;;;;;29.28;34.04;99316.03;4301565;33;35862;-70
2022/06/01 12:03:58;;;;;;;4.07;1.70;;;;;;;29.75;33.63;99322.59;4303611;33;35051;-71
2022/06/01 12:07:20;;;;;;;1.58;1.48;;;;;;;29.97;33.78;99319.69;4304212;33;33432;-70
2022/06/01 12:10:24;;;;;;;1.83;1.40;;;;;;;30.68;32.36;99320.31;4295449;33;33959;-71
2022/06/01 12:12:57;;;;;;;2.95;1.60;;;;;;;29.42;34.00;99319.28;4290114;33;34902;-70
2022/06/01 12:15:38;;;;;;;3.20;2.00;;;;;;;29.35;34.09;99310.97;4290955;33;35132;-70
2022/06/01 12:18:12;;;;;;;2.55;1.50;;;;;;;29.18;34.95;99312.47;4304125;33;34194;-71
2022/06/01 12:20:45;;;;;;;2.75;1.92;;;;;;;29.29;34.71;99309.66;4303536;33;33851;-71
2022/06/01 12:28:56;;;;;;;2.40;1.70;;;;;;;28.55;36.19;99302.72;4303481;33;33428;-71